WZZ224 LDSP-LOWI
Flight info
| Callsign | WZZ224 |
|---|---|
| Flight time | 1h 18m |
| Altitude | 38000 |
| Route | ZDA DCT KANIN DCT VEKEN DCT NANIT NANIT2A |
| Aircraft | A20N/M-SDE2E3FGHIRWXY/LB1 |
Departure
| Time | 2026-04-30 18:32 |
|---|---|
| Airport | Split Saint Jerome Airport (LDSP) |
Arrival
| Time | 2026-04-30 19:50 |
|---|---|
| Airport | Innsbruck Airport (LOWI) |
| Time | Latitude | Longitude | Altitude | Speed | Heading |
|---|---|---|---|---|---|
| 2026-04-30 18:13 | 43.53727 | 16.29872 | 83 ft | 0 kts | 114° |
| 2026-04-30 18:15 | 43.53691 | 16.29807 | 89 ft | 0 kts | 117° |
| 2026-04-30 18:25 | 43.53693 | 16.29802 | 84 ft | 2 kts | 118° |
| 2026-04-30 18:25 | 43.53703 | 16.29780 | 89 ft | 3 kts | 128° |
| 2026-04-30 18:26 | 43.53731 | 16.29754 | 88 ft | 3 kts | 205° |
| 2026-04-30 18:26 | 43.53739 | 16.29761 | 89 ft | 1 kts | 233° |
| 2026-04-30 18:26 | 43.53741 | 16.29765 | 89 ft | 0 kts | 233° |
| 2026-04-30 18:28 | 43.53734 | 16.29752 | 88 ft | 4 kts | 232° |
| 2026-04-30 18:29 | 43.53708 | 16.29704 | 90 ft | 9 kts | 232° |
| 2026-04-30 18:29 | 43.53573 | 16.29223 | 87 ft | 29 kts | 233° |
| 2026-04-30 18:30 | 43.53305 | 16.28741 | 91 ft | 30 kts | 234° |
| 2026-04-30 18:30 | 43.53220 | 16.28601 | 93 ft | 4 kts | 3° |
| 2026-04-30 18:31 | 43.53252 | 16.28648 | 90 ft | 12 kts | 51° |
| 2026-04-30 18:31 | 43.53909 | 16.29819 | 86 ft | 138 kts | 51° |
| 2026-04-30 18:32 | 43.54806 | 16.32505 | 891 ft | 170 kts | 79° |
| 2026-04-30 18:32 | 43.54721 | 16.34175 | 1442 ft | 184 kts | 105° |
| 2026-04-30 18:32 | 43.52496 | 16.36426 | 2747 ft | 225 kts | 158° |
| 2026-04-30 18:33 | 43.51023 | 16.37000 | 3790 ft | 213 kts | 153° |
| 2026-04-30 18:33 | 43.48668 | 16.39019 | 5274 ft | 196 kts | 138° |
| 2026-04-30 18:33 | 43.47568 | 16.40130 | 5479 ft | 197 kts | 138° |
| 2026-04-30 18:34 | 43.46278 | 16.40849 | 5487 ft | 211 kts | 172° |
| 2026-04-30 18:34 | 43.43741 | 16.38439 | 6119 ft | 248 kts | 234° |
| 2026-04-30 18:34 | 43.42727 | 16.36463 | 6690 ft | 260 kts | 236° |
| 2026-04-30 18:35 | 43.41643 | 16.34374 | 7233 ft | 275 kts | 236° |
| 2026-04-30 18:35 | 43.40491 | 16.32223 | 7991 ft | 283 kts | 236° |
| 2026-04-30 18:35 | 43.39297 | 16.30033 | 8843 ft | 290 kts | 235° |
| 2026-04-30 18:36 | 43.37149 | 16.25305 | 10471 ft | 300 kts | 252° |
| 2026-04-30 18:36 | 43.36713 | 16.22429 | 10828 ft | 317 kts | 271° |
| 2026-04-30 18:36 | 43.37973 | 16.16430 | 11566 ft | 346 kts | 307° |
| 2026-04-30 18:37 | 43.39645 | 16.14021 | 12276 ft | 351 kts | 321° |
| 2026-04-30 18:37 | 43.41554 | 16.11900 | 13170 ft | 354 kts | 323° |
| 2026-04-30 18:37 | 43.43496 | 16.09810 | 14086 ft | 357 kts | 323° |
| 2026-04-30 18:37 | 43.45461 | 16.07687 | 14786 ft | 362 kts | 322° |
| 2026-04-30 18:38 | 43.47457 | 16.05518 | 15500 ft | 368 kts | 322° |
| 2026-04-30 18:38 | 43.49472 | 16.03316 | 16274 ft | 372 kts | 322° |
| 2026-04-30 18:38 | 43.51504 | 16.01087 | 17037 ft | 375 kts | 322° |
| 2026-04-30 18:38 | 43.53552 | 15.98836 | 17790 ft | 379 kts | 321° |
| 2026-04-30 18:39 | 43.55622 | 15.96558 | 18502 ft | 383 kts | 321° |
| 2026-04-30 18:39 | 43.57712 | 15.94254 | 19128 ft | 386 kts | 321° |
| 2026-04-30 18:39 | 43.59819 | 15.91930 | 19773 ft | 389 kts | 321° |
| 2026-04-30 18:39 | 43.61940 | 15.89587 | 20416 ft | 392 kts | 321° |
| 2026-04-30 18:40 | 43.64074 | 15.87228 | 21039 ft | 395 kts | 321° |
| 2026-04-30 18:40 | 43.66197 | 15.84879 | 21660 ft | 398 kts | 321° |
| 2026-04-30 18:40 | 43.68365 | 15.82478 | 22265 ft | 401 kts | 321° |
| 2026-04-30 18:40 | 43.70548 | 15.80057 | 22863 ft | 404 kts | 321° |
| 2026-04-30 18:41 | 43.72744 | 15.77619 | 23441 ft | 407 kts | 321° |
| 2026-04-30 18:41 | 43.74959 | 15.75159 | 23967 ft | 410 kts | 321° |
| 2026-04-30 18:41 | 43.77190 | 15.72678 | 24431 ft | 413 kts | 321° |
| 2026-04-30 18:41 | 43.79435 | 15.70179 | 24898 ft | 415 kts | 321° |
| 2026-04-30 18:42 | 43.81690 | 15.67668 | 25354 ft | 418 kts | 320° |
| 2026-04-30 18:42 | 43.86240 | 15.62589 | 26248 ft | 422 kts | 321° |
| 2026-04-30 18:42 | 43.88535 | 15.60025 | 26681 ft | 425 kts | 321° |
| 2026-04-30 18:45 | 44.12088 | 15.34603 | 31406 ft | 424 kts | 330° |
| 2026-04-30 18:45 | 44.14671 | 15.32688 | 31848 ft | 422 kts | 331° |
| 2026-04-30 18:45 | 44.17287 | 15.30830 | 32201 ft | 423 kts | 333° |
| 2026-04-30 18:46 | 44.19928 | 15.28987 | 32470 ft | 425 kts | 333° |
| 2026-04-30 18:46 | 44.22574 | 15.27144 | 32824 ft | 425 kts | 333° |
| 2026-04-30 18:46 | 44.25175 | 15.25324 | 33220 ft | 423 kts | 332° |
| 2026-04-30 18:46 | 44.27800 | 15.23477 | 33600 ft | 422 kts | 332° |
| 2026-04-30 18:47 | 44.30418 | 15.21624 | 33947 ft | 422 kts | 332° |
| 2026-04-30 18:47 | 44.33030 | 15.19766 | 34290 ft | 421 kts | 332° |
| 2026-04-30 18:47 | 44.35638 | 15.17907 | 34563 ft | 421 kts | 332° |
| 2026-04-30 18:47 | 44.38246 | 15.16044 | 34808 ft | 422 kts | 332° |
| 2026-04-30 18:48 | 44.40863 | 15.14172 | 34976 ft | 424 kts | 332° |
| 2026-04-30 18:48 | 44.43486 | 15.12295 | 35216 ft | 423 kts | 333° |
| 2026-04-30 18:48 | 44.46104 | 15.10420 | 35535 ft | 422 kts | 332° |
| 2026-04-30 18:48 | 44.48712 | 15.08550 | 35798 ft | 421 kts | 332° |
| 2026-04-30 18:49 | 44.51316 | 15.06682 | 36030 ft | 421 kts | 332° |
| 2026-04-30 18:49 | 44.53919 | 15.04812 | 36270 ft | 420 kts | 332° |
| 2026-04-30 18:49 | 44.56523 | 15.02940 | 36501 ft | 420 kts | 332° |
| 2026-04-30 18:49 | 44.59125 | 15.01068 | 36731 ft | 420 kts | 333° |
| 2026-04-30 18:50 | 44.61733 | 14.99189 | 36879 ft | 422 kts | 332° |
| 2026-04-30 18:50 | 44.64345 | 14.97305 | 37070 ft | 423 kts | 332° |
| 2026-04-30 18:50 | 44.66960 | 14.95417 | 37292 ft | 422 kts | 332° |
| 2026-04-30 18:50 | 44.69573 | 14.93530 | 37517 ft | 422 kts | 332° |
| 2026-04-30 18:51 | 44.72182 | 14.91642 | 37747 ft | 422 kts | 332° |
| 2026-04-30 18:51 | 44.74790 | 14.89754 | 37958 ft | 421 kts | 332° |
| 2026-04-30 18:51 | 44.77393 | 14.87868 | 38157 ft | 421 kts | 332° |
| 2026-04-30 18:51 | 44.79999 | 14.85976 | 38290 ft | 422 kts | 332° |
| 2026-04-30 18:52 | 44.82612 | 14.84078 | 38295 ft | 422 kts | 332° |
| 2026-04-30 18:52 | 44.87827 | 14.80284 | 38290 ft | 420 kts | 332° |
| 2026-04-30 18:53 | 44.93003 | 14.76511 | 38290 ft | 417 kts | 332° |
| 2026-04-30 18:53 | 44.98161 | 14.72742 | 38303 ft | 418 kts | 332° |
| 2026-04-30 18:54 | 45.03339 | 14.68953 | 38283 ft | 420 kts | 333° |
| 2026-04-30 18:54 | 45.08538 | 14.65142 | 38293 ft | 421 kts | 333° |
| 2026-04-30 18:55 | 45.13745 | 14.61316 | 38292 ft | 422 kts | 333° |
| 2026-04-30 18:55 | 45.21553 | 14.55562 | 38292 ft | 422 kts | 332° |
| 2026-04-30 18:56 | 45.29317 | 14.49823 | 38291 ft | 421 kts | 332° |
| 2026-04-30 18:57 | 45.37105 | 14.44049 | 38301 ft | 421 kts | 333° |
| 2026-04-30 18:57 | 45.42292 | 14.40193 | 38309 ft | 420 kts | 333° |
| 2026-04-30 18:58 | 45.50080 | 14.34389 | 38320 ft | 424 kts | 332° |
| 2026-04-30 18:59 | 45.57943 | 14.28510 | 38322 ft | 426 kts | 332° |
| 2026-04-30 19:00 | 45.68433 | 14.20636 | 38325 ft | 425 kts | 333° |
| 2026-04-30 19:01 | 45.78898 | 14.12752 | 38333 ft | 425 kts | 333° |
| 2026-04-30 19:02 | 45.86758 | 14.06806 | 38335 ft | 426 kts | 333° |
| 2026-04-30 19:03 | 45.97217 | 13.98864 | 38330 ft | 426 kts | 333° |
| 2026-04-30 19:04 | 46.07721 | 13.90853 | 38327 ft | 428 kts | 333° |
| 2026-04-30 19:05 | 46.18240 | 13.82796 | 38325 ft | 427 kts | 334° |
| 2026-04-30 19:06 | 46.28694 | 13.74757 | 38322 ft | 427 kts | 334° |
| 2026-04-30 19:06 | 46.36547 | 13.68692 | 38311 ft | 426 kts | 334° |
| 2026-04-30 19:07 | 46.43326 | 13.62714 | 38305 ft | 430 kts | 322° |
| 2026-04-30 19:08 | 46.47372 | 13.56241 | 38314 ft | 436 kts | 311° |
| 2026-04-30 19:08 | 46.50970 | 13.49128 | 38308 ft | 438 kts | 309° |
| 2026-04-30 19:09 | 46.56346 | 13.38427 | 38316 ft | 434 kts | 318° |
| 2026-04-30 19:09 | 46.60779 | 13.32623 | 38004 ft | 431 kts | 323° |
| 2026-04-30 19:10 | 46.65366 | 13.26964 | 36615 ft | 435 kts | 324° |
| 2026-04-30 19:10 | 46.70022 | 13.21247 | 35246 ft | 440 kts | 325° |
| 2026-04-30 19:11 | 46.72362 | 13.18371 | 34608 ft | 441 kts | 325° |
| 2026-04-30 19:11 | 46.77050 | 13.12600 | 33134 ft | 443 kts | 326° |
| 2026-04-30 19:11 | 46.79415 | 13.09686 | 32277 ft | 446 kts | 326° |
| 2026-04-30 19:12 | 46.81782 | 13.06764 | 31538 ft | 446 kts | 326° |
| 2026-04-30 19:12 | 46.84159 | 13.03826 | 30776 ft | 448 kts | 326° |
| 2026-04-30 19:12 | 46.86544 | 13.00875 | 29899 ft | 451 kts | 327° |
| 2026-04-30 19:13 | 46.91349 | 12.94920 | 28131 ft | 454 kts | 326° |
| 2026-04-30 19:13 | 46.96181 | 12.88916 | 26312 ft | 457 kts | 326° |
| 2026-04-30 19:13 | 46.98613 | 12.85888 | 25325 ft | 461 kts | 326° |
| 2026-04-30 19:14 | 47.01066 | 12.82832 | 24280 ft | 465 kts | 325° |
| 2026-04-30 19:14 | 47.03537 | 12.79748 | 23359 ft | 465 kts | 325° |
| 2026-04-30 19:14 | 47.05969 | 12.76702 | 22783 ft | 455 kts | 325° |
| 2026-04-30 19:14 | 47.08369 | 12.73700 | 21965 ft | 451 kts | 325° |
| 2026-04-30 19:15 | 47.10733 | 12.70730 | 21214 ft | 444 kts | 325° |
| 2026-04-30 19:15 | 47.15377 | 12.64898 | 19731 ft | 435 kts | 325° |
| 2026-04-30 19:15 | 47.17665 | 12.62025 | 18988 ft | 431 kts | 324° |
| 2026-04-30 19:16 | 47.19934 | 12.59161 | 18198 ft | 429 kts | 324° |
| 2026-04-30 19:16 | 47.22189 | 12.56318 | 17413 ft | 424 kts | 324° |
| 2026-04-30 19:16 | 47.26530 | 12.50833 | 16908 ft | 394 kts | 324° |
| 2026-04-30 19:17 | 47.28561 | 12.48260 | 16768 ft | 377 kts | 324° |
| 2026-04-30 19:17 | 47.32353 | 12.43452 | 16557 ft | 342 kts | 324° |
| 2026-04-30 19:17 | 47.34121 | 12.41207 | 16414 ft | 329 kts | 325° |
| 2026-04-30 19:18 | 47.36932 | 12.37643 | 16076 ft | 314 kts | 325° |
| 2026-04-30 19:18 | 47.38912 | 12.34396 | 15477 ft | 325 kts | 303° |
| 2026-04-30 19:18 | 47.39645 | 12.31245 | 15186 ft | 325 kts | 285° |
| 2026-04-30 19:19 | 47.39997 | 12.27949 | 15081 ft | 325 kts | 282° |
| 2026-04-30 19:19 | 47.40294 | 12.24640 | 14958 ft | 326 kts | 282° |
| 2026-04-30 19:19 | 47.40885 | 12.18034 | 14699 ft | 324 kts | 282° |
| 2026-04-30 19:20 | 47.41186 | 12.14738 | 14564 ft | 323 kts | 282° |
| 2026-04-30 19:20 | 47.41490 | 12.11452 | 14437 ft | 323 kts | 282° |
| 2026-04-30 19:20 | 47.42092 | 12.04949 | 14175 ft | 321 kts | 282° |
| 2026-04-30 19:21 | 47.42392 | 12.01688 | 14055 ft | 320 kts | 281° |
| 2026-04-30 19:21 | 47.42988 | 11.95186 | 13782 ft | 319 kts | 282° |
| 2026-04-30 19:22 | 47.44709 | 11.89473 | 13508 ft | 300 kts | 322° |
| 2026-04-30 19:22 | 47.50295 | 11.88390 | 13117 ft | 280 kts | 30° |
| 2026-04-30 19:23 | 47.52863 | 11.95650 | 12739 ft | 286 kts | 90° |
| 2026-04-30 19:24 | 47.52360 | 12.01457 | 12472 ft | 278 kts | 97° |
| 2026-04-30 19:24 | 47.51906 | 12.04183 | 12334 ft | 269 kts | 104° |
| 2026-04-30 19:24 | 47.50281 | 12.09089 | 12071 ft | 271 kts | 128° |
| 2026-04-30 19:25 | 47.45074 | 12.11687 | 11682 ft | 285 kts | 197° |
| 2026-04-30 19:26 | 47.42321 | 12.07754 | 11437 ft | 284 kts | 253° |
| 2026-04-30 19:26 | 47.42318 | 12.02062 | 11195 ft | 279 kts | 280° |
| 2026-04-30 19:26 | 47.42591 | 11.99226 | 11073 ft | 279 kts | 280° |
| 2026-04-30 19:27 | 47.43165 | 11.93581 | 10820 ft | 276 kts | 287° |
| 2026-04-30 19:27 | 47.45417 | 11.89463 | 10580 ft | 262 kts | 340° |
| 2026-04-30 19:28 | 47.47177 | 11.89037 | 10457 ft | 256 kts | 8° |
| 2026-04-30 19:28 | 47.50087 | 11.91656 | 10220 ft | 253 kts | 59° |
| 2026-04-30 19:29 | 47.50562 | 11.96746 | 9959 ft | 257 kts | 95° |
| 2026-04-30 19:29 | 47.50346 | 11.99372 | 9845 ft | 257 kts | 96° |
| 2026-04-30 19:30 | 47.49527 | 12.07213 | 9826 ft | 259 kts | 109° |
| 2026-04-30 19:30 | 47.47002 | 12.10783 | 9832 ft | 265 kts | 164° |
| 2026-04-30 19:31 | 47.43497 | 12.09615 | 9835 ft | 272 kts | 221° |
| 2026-04-30 19:31 | 47.42410 | 12.07371 | 9831 ft | 271 kts | 251° |
| 2026-04-30 19:31 | 47.42345 | 12.01896 | 9832 ft | 271 kts | 279° |
| 2026-04-30 19:32 | 47.42605 | 11.99137 | 9829 ft | 271 kts | 279° |
| 2026-04-30 19:32 | 47.42860 | 11.96378 | 9826 ft | 272 kts | 279° |
| 2026-04-30 19:32 | 47.43159 | 11.93627 | 9818 ft | 271 kts | 287° |
| 2026-04-30 19:32 | 47.43962 | 11.91167 | 9826 ft | 266 kts | 312° |
| 2026-04-30 19:33 | 47.45407 | 11.89568 | 9822 ft | 259 kts | 341° |
| 2026-04-30 19:33 | 47.47158 | 11.89195 | 9826 ft | 255 kts | 9° |
| 2026-04-30 19:33 | 47.48805 | 11.90056 | 9824 ft | 252 kts | 35° |
| 2026-04-30 19:33 | 47.50005 | 11.91915 | 9823 ft | 252 kts | 60° |
| 2026-04-30 19:34 | 47.50500 | 11.94383 | 9823 ft | 254 kts | 87° |
| 2026-04-30 19:34 | 47.50412 | 11.97001 | 9833 ft | 256 kts | 94° |
| 2026-04-30 19:34 | 47.50020 | 12.02249 | 9826 ft | 257 kts | 95° |
| 2026-04-30 19:35 | 47.49818 | 12.04874 | 9828 ft | 257 kts | 95° |
| 2026-04-30 19:35 | 47.49443 | 12.07456 | 9823 ft | 259 kts | 110° |
| 2026-04-30 19:35 | 47.48424 | 12.09635 | 9830 ft | 262 kts | 138° |
| 2026-04-30 19:35 | 47.46804 | 12.10842 | 9831 ft | 265 kts | 167° |
| 2026-04-30 19:36 | 47.44964 | 12.10763 | 9823 ft | 269 kts | 196° |
| 2026-04-30 19:36 | 47.43360 | 12.09428 | 9835 ft | 272 kts | 224° |
| 2026-04-30 19:36 | 47.42164 | 12.04371 | 9834 ft | 269 kts | 275° |
| 2026-04-30 19:37 | 47.42374 | 12.01578 | 9832 ft | 271 kts | 279° |
| 2026-04-30 19:37 | 47.42634 | 11.98821 | 9829 ft | 271 kts | 279° |
| 2026-04-30 19:37 | 47.42886 | 11.96095 | 9824 ft | 272 kts | 279° |
| 2026-04-30 19:37 | 47.43209 | 11.93355 | 9821 ft | 270 kts | 289° |
| 2026-04-30 19:38 | 47.44086 | 11.90952 | 9827 ft | 265 kts | 315° |
| 2026-04-30 19:38 | 47.45579 | 11.89471 | 9826 ft | 259 kts | 344° |
| 2026-04-30 19:38 | 47.47339 | 11.89228 | 9828 ft | 254 kts | 11° |
| 2026-04-30 19:38 | 47.48953 | 11.90203 | 9826 ft | 252 kts | 38° |
| 2026-04-30 19:39 | 47.50093 | 11.92141 | 9825 ft | 252 kts | 63° |
| 2026-04-30 19:39 | 47.50507 | 11.94642 | 9830 ft | 254 kts | 88° |
| 2026-04-30 19:39 | 47.50397 | 11.97262 | 9831 ft | 256 kts | 95° |
| 2026-04-30 19:39 | 47.50198 | 11.99885 | 9829 ft | 257 kts | 95° |
| 2026-04-30 19:40 | 47.50000 | 12.02510 | 9826 ft | 257 kts | 95° |
| 2026-04-30 19:40 | 47.49799 | 12.05136 | 9828 ft | 257 kts | 95° |
| 2026-04-30 19:41 | 47.44887 | 12.10731 | 9821 ft | 268 kts | 197° |
| 2026-04-30 19:41 | 47.43290 | 12.09334 | 9749 ft | 269 kts | 225° |
| 2026-04-30 19:41 | 47.42318 | 12.07010 | 9616 ft | 268 kts | 254° |
| 2026-04-30 19:42 | 47.42149 | 12.04304 | 9490 ft | 266 kts | 275° |
| 2026-04-30 19:42 | 47.42360 | 12.01596 | 9358 ft | 266 kts | 279° |
| 2026-04-30 19:42 | 47.42621 | 11.98891 | 9220 ft | 266 kts | 279° |
| 2026-04-30 19:42 | 47.42874 | 11.96190 | 9092 ft | 265 kts | 279° |
| 2026-04-30 19:43 | 47.43120 | 11.93497 | 8973 ft | 264 kts | 278° |
| 2026-04-30 19:43 | 47.43254 | 11.90800 | 8855 ft | 264 kts | 262° |
| 2026-04-30 19:43 | 47.42525 | 11.88370 | 8749 ft | 261 kts | 229° |
| 2026-04-30 19:44 | 47.40054 | 11.84453 | 8556 ft | 263 kts | 230° |
| 2026-04-30 19:44 | 47.38948 | 11.82304 | 8460 ft | 263 kts | 235° |
| 2026-04-30 19:44 | 47.37927 | 11.80074 | 8356 ft | 261 kts | 237° |
| 2026-04-30 19:44 | 47.36961 | 11.77806 | 8251 ft | 261 kts | 239° |
| 2026-04-30 19:45 | 47.36024 | 11.75510 | 8138 ft | 261 kts | 239° |
| 2026-04-30 19:45 | 47.35107 | 11.73208 | 8035 ft | 260 kts | 240° |
| 2026-04-30 19:45 | 47.34200 | 11.70901 | 7936 ft | 259 kts | 240° |
| 2026-04-30 19:45 | 47.33302 | 11.68603 | 7765 ft | 259 kts | 240° |
| 2026-04-30 19:46 | 47.32406 | 11.66301 | 7450 ft | 259 kts | 240° |
| 2026-04-30 19:46 | 47.31515 | 11.64010 | 7181 ft | 256 kts | 240° |
| 2026-04-30 19:46 | 47.30645 | 11.61774 | 6949 ft | 247 kts | 240° |
| 2026-04-30 19:46 | 47.29861 | 11.59551 | 6678 ft | 242 kts | 249° |
| 2026-04-30 19:47 | 47.29402 | 11.57262 | 6374 ft | 225 kts | 256° |
| 2026-04-30 19:47 | 47.29159 | 11.55785 | 6168 ft | 214 kts | 256° |
| 2026-04-30 19:47 | 47.28729 | 11.53087 | 5790 ft | 196 kts | 256° |
| 2026-04-30 19:47 | 47.28424 | 11.51184 | 5474 ft | 186 kts | 256° |
| 2026-04-30 19:48 | 47.28127 | 11.49341 | 5055 ft | 183 kts | 256° |
| 2026-04-30 19:48 | 47.27831 | 11.47523 | 4565 ft | 182 kts | 256° |
| 2026-04-30 19:48 | 47.27536 | 11.45723 | 4113 ft | 180 kts | 256° |
| 2026-04-30 19:48 | 47.27242 | 11.43938 | 3655 ft | 179 kts | 256° |
| 2026-04-30 19:49 | 47.26951 | 11.42168 | 3174 ft | 177 kts | 256° |
| 2026-04-30 19:49 | 47.26437 | 11.38686 | 2260 ft | 167 kts | 264° |
| 2026-04-30 19:49 | 47.26310 | 11.37074 | 2065 ft | 150 kts | 262° |
| 2026-04-30 19:50 | 47.26153 | 11.35622 | 1936 ft | 138 kts | 262° |
| 2026-04-30 19:50 | 47.26013 | 11.34317 | 1909 ft | 107 kts | 261° |
| 2026-04-30 19:50 | 47.25941 | 11.33658 | 1908 ft | 36 kts | 261° |
| 2026-04-30 19:50 | 47.25897 | 11.33303 | 1909 ft | 32 kts | 243° |
| 2026-04-30 19:51 | 47.25851 | 11.33081 | 1897 ft | 17 kts | 325° |
| 2026-04-30 19:51 | 47.25893 | 11.33189 | 1901 ft | 20 kts | 83° |
| 2026-04-30 19:51 | 47.25921 | 11.33470 | 1896 ft | 34 kts | 81° |
| 2026-04-30 19:51 | 47.25963 | 11.33867 | 1906 ft | 44 kts | 81° |
| 2026-04-30 19:52 | 47.26020 | 11.34367 | 1901 ft | 70 kts | 81° |
| 2026-04-30 19:52 | 47.26092 | 11.35049 | 1900 ft | 43 kts | 82° |
| 2026-04-30 19:52 | 47.26078 | 11.35257 | 1900 ft | 8 kts | 169° |
| 2026-04-30 19:52 | 47.25929 | 11.35288 | 1907 ft | 12 kts | 182° |
| 2026-04-30 19:53 | 47.25897 | 11.35218 | 1903 ft | 21 kts | 252° |
| 2026-04-30 19:53 | 47.25866 | 11.34960 | 1899 ft | 30 kts | 260° |
| 2026-04-30 19:53 | 47.25846 | 11.34765 | 1901 ft | 12 kts | 251° |
| 2026-04-30 19:53 | 47.25805 | 11.34750 | 1907 ft | 9 kts | 172° |
| 2026-04-30 19:54 | 47.25788 | 11.34753 | 1910 ft | 0 kts | 172° |
| 2026-04-30 19:54 | 47.25790 | 11.34753 | 1910 ft | 1 kts | 172° |
| 2026-04-30 19:54 | 47.25791 | 11.34752 | 1910 ft | 0 kts | 172° |
| 2026-04-30 19:54 | 47.25791 | 11.34753 | 1910 ft | 0 kts | 172° |